Time;durP1;ratioP1;P1;durP2;ratioP2;P2;SDS_P1;SDS_P2;PMS_P1;PMS_P2;Temp;Humidity;BMP_temperature;BMP_pressure;BME280_temperature;BME280_humidity;BME280_pressure;Samples;Min_cycle;Max_cycle;Signal;HPM_P1;HPM_P2
2023/09/16 00:01:43;;;;;;;24.98;14.52;;;;;;;13.19;100.00;101250.25;6181977;23;20001;-80
2023/09/16 00:04:09;;;;;;;26.13;14.73;;;;;;;13.19;100.00;101252.09;6180627;23;20055;-80
2023/09/16 00:06:35;;;;;;;25.20;14.10;;;;;;;13.17;100.00;101249.50;6181249;23;20343;-80
2023/09/16 00:09:00;;;;;;;24.52;13.32;;;;;;;13.14;100.00;101252.44;6182378;23;20008;-80
2023/09/16 00:11:25;;;;;;;25.90;15.68;;;;;;;13.12;100.00;101249.03;6182020;23;20043;-80
2023/09/16 00:13:51;;;;;;;25.55;16.40;;;;;;;13.11;100.00;101250.00;6182414;23;20011;-80
2023/09/16 00:16:16;;;;;;;27.52;16.73;;;;;;;13.09;100.00;101252.81;6182200;23;20335;-80
2023/09/16 00:18:41;;;;;;;26.02;16.35;;;;;;;13.09;100.00;101260.06;6182558;23;20033;-81
2023/09/16 00:21:07;;;;;;;30.13;16.70;;;;;;;13.06;100.00;101268.34;6180442;23;20040;-80
2023/09/16 00:23:32;;;;;;;26.15;16.15;;;;;;;13.03;100.00;101269.47;6181259;23;20005;-80
2023/09/16 00:26:01;;;;;;;29.50;16.67;;;;;;;13.01;100.00;101276.81;6182429;23;20502;-80
2023/09/16 00:28:26;;;;;;;28.20;17.63;;;;;;;12.98;100.00;101268.97;6182106;23;20009;-80
2023/09/16 00:30:51;;;;;;;26.05;15.98;;;;;;;12.97;100.00;101267.22;6179896;23;20092;-81
2023/09/16 00:33:17;;;;;;;28.58;18.10;;;;;;;12.96;100.00;101267.34;6181888;23;20005;-80
2023/09/16 00:35:42;;;;;;;28.80;17.25;;;;;;;12.93;100.00;101268.47;6182427;23;20004;-80
2023/09/16 00:38:09;;;;;;;26.08;17.70;;;;;;;12.92;100.00;101259.50;6182170;23;20001;-80
2023/09/16 00:40:35;;;;;;;29.20;16.77;;;;;;;12.91;100.00;101259.63;6182190;23;19997;-80
2023/09/16 00:43:00;;;;;;;27.08;17.90;;;;;;;12.90;100.00;101258.75;6180583;23;20075;-78
2023/09/16 00:45:25;;;;;;;29.38;16.55;;;;;;;12.89;100.00;101256.19;6182027;23;20427;-78
2023/09/16 00:47:53;;;;;;;28.98;16.52;;;;;;;12.87;100.00;101255.44;6181763;23;20005;-78
2023/09/16 00:50:19;;;;;;;26.20;16.45;;;;;;;12.87;100.00;101248.22;6181248;23;20075;-77
2023/09/16 00:52:52;;;;;;;28.48;17.40;;;;;;;12.87;100.00;101248.22;6179764;23;20008;-78
2023/09/16 00:55:17;;;;;;;28.00;17.13;;;;;;;12.83;100.00;101235.09;6181974;23;20012;-79
2023/09/16 00:57:46;;;;;;;27.60;17.48;;;;;;;12.81;100.00;101232.50;6181501;23;20013;-79
2023/09/16 01:00:16;;;;;;;24.33;15.20;;;;;;;12.77;100.00;101231.00;6180199;23;20015;-82
2023/09/16 01:02:43;;;;;;;26.63;16.73;;;;;;;12.73;100.00;101240.31;6180320;23;20422;-80
2023/09/16 01:05:14;;;;;;;29.40;17.55;;;;;;;12.72;100.00;101233.19;6182033;23;20005;-80
2023/09/16 01:07:45;;;;;;;28.58;18.85;;;;;;;12.71;100.00;101231.50;6182316;23;20001;-80
2023/09/16 01:10:11;;;;;;;26.42;17.70;;;;;;;12.69;100.00;101233.44;6182273;23;20131;-80
2023/09/16 01:12:38;;;;;;;25.08;16.13;;;;;;;12.68;100.00;101226.31;6181296;23;20000;-80
2023/09/16 01:15:09;;;;;;;26.73;16.67;;;;;;;12.67;100.00;101232.69;6182043;23;20435;-80
2023/09/16 01:17:47;;;;;;;27.90;16.90;;;;;;;12.64;100.00;101230.25;6180019;23;20017;-80
2023/09/16 01:20:15;;;;;;;29.10;15.95;;;;;;;12.61;100.00;101227.75;6181926;23;20004;-80
2023/09/16 01:22:45;;;;;;;26.90;16.10;;;;;;;12.59;100.00;101238.66;6179782;23;20011;-80
2023/09/16 01:25:14;;;;;;;25.27;16.35;;;;;;;12.55;100.00;101232.66;6179657;23;20029;-80
2023/09/16 01:27:40;;;;;;;25.40;16.00;;;;;;;12.55;100.00;101221.84;6180981;23;20005;-80
2023/09/16 01:30:06;;;;;;;28.40;16.70;;;;;;;12.55;100.00;101226.41;6181797;23;20507;-80
2023/09/16 01:32:39;;;;;;;26.02;17.17;;;;;;;12.53;100.00;101231.91;6179907;23;20447;-80
2023/09/16 01:35:08;;;;;;;28.17;17.55;;;;;;;12.50;100.00;101232.13;6181392;23;20017;-80
2023/09/16 01:37:35;;;;;;;25.23;17.38;;;;;;;12.49;100.00;101234.94;6180477;23;20015;-80
2023/09/16 01:40:11;;;;;;;27.85;17.08;;;;;;;12.47;100.00;101232.34;6180468;23;20076;-80
2023/09/16 01:42:36;;;;;;;25.15;17.00;;;;;;;12.47;100.00;101234.19;6180772;23;20005;-80
2023/09/16 01:45:03;;;;;;;26.60;17.15;;;;;;;12.47;100.00;101232.34;6178697;23;20060;-80
2023/09/16 01:47:29;;;;;;;26.13;16.80;;;;;;;12.47;100.00;101223.41;6180007;23;20001;-80
2023/09/16 01:49:54;;;;;;;25.92;16.50;;;;;;;12.47;100.00;101218.03;6180311;23;20056;-80
2023/09/16 01:52:20;;;;;;;30.00;19.77;;;;;;;12.47;100.00;101208.09;6179497;23;20012;-80
2023/09/16 01:54:45;;;;;;;26.88;17.80;;;;;;;12.47;100.00;101218.88;6182037;23;20190;-80
2023/09/16 01:57:10;;;;;;;26.00;16.52;;;;;;;12.45;100.00;101223.53;6181554;23;20005;-80
2023/09/16 01:59:36;;;;;;;26.80;17.20;;;;;;;12.39;100.00;101213.22;6179573;23;20088;-81
2023/09/16 02:02:01;;;;;;;25.02;16.13;;;;;;;12.35;100.00;101215.25;6180995;23;20059;-80
2023/09/16 02:04:27;;;;;;;24.63;15.75;;;;;;;12.33;100.00;101216.34;6180082;23;20016;-81
2023/09/16 02:06:52;;;;;;;26.73;16.65;;;;;;;12.30;100.00;101208.50;6180118;23;20380;-79
2023/09/16 02:09:18;;;;;;;26.65;17.15;;;;;;;12.28;100.00;101214.00;6181015;23;20005;-79
2023/09/16 02:11:43;;;;;;;26.48;17.08;;;;;;;12.28;100.00;101205.91;6179857;23;20009;-82
2023/09/16 02:14:11;;;;;;;28.95;16.38;;;;;;;12.28;100.00;101213.16;6180559;23;20095;-82
2023/09/16 02:16:37;;;;;;;25.85;16.10;;;;;;;12.25;100.00;101214.22;6180584;23;20011;-80
2023/09/16 02:19:03;;;;;;;28.60;17.55;;;;;;;12.22;100.00;101215.31;6180197;23;20100;-82
2023/09/16 02:21:28;;;;;;;27.85;16.80;;;;;;;12.22;100.00;101214.47;6181347;23;20199;-82
2023/09/16 02:23:54;;;;;;;24.98;15.63;;;;;;;12.20;100.00;101206.50;6179093;23;20005;-82
2023/09/16 02:26:19;;;;;;;23.80;15.52;;;;;;;12.18;100.00;101218.34;6178756;23;20355;-82
2023/09/16 02:28:44;;;;;;;26.35;15.77;;;;;;;12.16;100.00;101217.63;6178657;23;20005;-82
2023/09/16 02:31:10;;;;;;;28.67;15.88;;;;;;;12.16;100.00;101220.31;6178957;23;20009;-82
2023/09/16 02:33:36;;;;;;;24.30;15.63;;;;;;;12.15;100.00;101219.47;6179895;23;20328;-82
2023/09/16 02:36:02;;;;;;;24.65;15.45;;;;;;;12.16;100.00;101220.31;6180265;23;20039;-82
2023/09/16 02:38:27;;;;;;;24.08;15.40;;;;;;;12.17;100.00;101216.66;6178838;23;20005;-82
2023/09/16 02:40:53;;;;;;;26.40;15.95;;;;;;;12.15;100.00;101215.91;6179084;23;20021;-82
2023/09/16 02:43:18;;;;;;;26.45;16.50;;;;;;;12.16;100.00;101212.25;6180654;23;20005;-82
2023/09/16 02:45:44;;;;;;;25.52;16.08;;;;;;;12.15;100.00;101214.09;6180357;23;20004;-82
2023/09/16 02:48:09;;;;;;;26.05;17.08;;;;;;;12.16;100.00;101210.38;6180400;23;20004;-81
2023/09/16 02:50:37;;;;;;;24.35;15.50;;;;;;;12.16;100.00;101215.78;6181041;23;20033;-82
2023/09/16 02:53:02;;;;;;;25.17;15.48;;;;;;;12.17;100.00;101213.97;6178844;23;20438;-81
2023/09/16 02:55:28;;;;;;;25.33;15.68;;;;;;;12.19;100.00;101218.25;6178730;23;20005;-82
2023/09/16 02:57:54;;;;;;;26.90;15.75;;;;;;;12.21;100.00;101213.63;6177813;23;20012;-82
2023/09/16 03:00:20;;;;;;;28.27;16.55;;;;;;;12.23;100.00;101210.81;6180419;23;20376;-82
2023/09/16 03:02:49;;;;;;;24.98;15.18;;;;;;;12.26;100.00;101205.19;6179842;23;20059;-82
2023/09/16 03:05:15;;;;;;;25.77;15.82;;;;;;;12.26;100.00;101201.63;6178382;23;20166;-82
2023/09/16 03:07:40;;;;;;;26.60;16.60;;;;;;;12.28;100.00;101210.47;6178687;23;20439;-81
2023/09/16 03:10:05;;;;;;;22.77;13.68;;;;;;;12.28;100.00;101194.28;6179550;23;20312;-82
2023/09/16 03:12:31;;;;;;;26.05;14.98;;;;;;;12.25;100.00;101198.06;6180072;23;20312;-82
2023/09/16 03:14:56;;;;;;;25.17;15.15;;;;;;;12.23;100.00;101197.34;6180702;23;20012;-81
2023/09/16 03:17:21;;;;;;;27.63;15.52;;;;;;;12.20;100.00;101195.72;6179519;23;20001;-81
2023/09/16 03:19:47;;;;;;;25.55;16.30;;;;;;;12.19;100.00;101194.00;6180171;23;19997;-82
2023/09/16 03:22:12;;;;;;;26.52;16.13;;;;;;;12.17;100.00;101195.94;6180217;23;20008;-78
2023/09/16 03:24:37;;;;;;;24.85;14.27;;;;;;;12.15;100.00;101187.13;6180356;23;20346;-77
2023/09/16 03:27:03;;;;;;;24.80;14.60;;;;;;;12.15;100.00;101194.34;6177863;23;20013;-77
2023/09/16 03:29:29;;;;;;;25.20;14.85;;;;;;;12.14;100.00;101190.78;6178728;23;20001;-77
2023/09/16 03:31:54;;;;;;;25.17;14.23;;;;;;;12.14;100.00;101192.59;6178538;23;20005;-77
2023/09/16 03:34:20;;;;;;;24.13;14.20;;;;;;;12.15;100.00;101195.22;6182585;23;20021;-84
2023/09/16 03:36:45;;;;;;;24.17;13.68;;;;;;;12.14;100.00;101189.91;6181488;23;20001;-84
2023/09/16 03:39:10;;;;;;;26.08;15.02;;;;;;;12.13;100.00;101194.44;6182244;23;20084;-84
2023/09/16 03:41:37;;;;;;;27.73;17.48;;;;;;;12.13;100.00;101191.75;6180774;23;20334;-85
2023/09/16 03:44:03;;;;;;;26.45;15.25;;;;;;;12.14;100.00;101185.41;6179884;23;20009;-82
2023/09/16 03:46:28;;;;;;;25.35;15.82;;;;;;;12.12;100.00;101184.63;6180285;23;20386;-82
2023/09/16 03:48:54;;;;;;;25.08;15.68;;;;;;;12.13;100.00;101180.13;6178228;23;20543;-81
2023/09/16 03:51:19;;;;;;;27.20;16.95;;;;;;;12.14;100.00;101180.00;6178303;23;20033;-81
2023/09/16 03:53:45;;;;;;;28.10;16.27;;;;;;;12.13;100.00;101178.28;6178394;23;20009;-81
2023/09/16 03:56:11;;;;;;;27.85;17.45;;;;;;;12.12;100.00;101170.31;6180093;23;20001;-82
2023/09/16 03:58:37;;;;;;;26.25;16.48;;;;;;;12.09;100.00;101171.41;6178006;23;20378;-82
2023/09/16 04:01:03;;;;;;;28.27;16.85;;;;;;;12.07;100.00;101174.22;6178393;23;20016;-82
2023/09/16 04:03:29;;;;;;;25.30;15.57;;;;;;;12.05;100.00;101170.78;6180649;23;20454;-82
2023/09/16 04:05:57;;;;;;;26.77;16.38;;;;;;;12.03;100.00;101174.56;6180512;23;20088;-82
2023/09/16 04:08:23;;;;;;;24.83;15.45;;;;;;;12.01;100.00;101179.22;6178611;23;20389;-81
2023/09/16 04:10:48;;;;;;;28.10;16.23;;;;;;;12.00;100.00;101178.34;6181528;23;20020;-81
2023/09/16 04:13:14;;;;;;;26.17;16.83;;;;;;;11.99;100.00;101183.84;6180618;23;20058;-82
2023/09/16 04:15:39;;;;;;;25.85;15.07;;;;;;;11.99;100.00;101178.44;6182569;23;20005;-81
2023/09/16 04:18:05;;;;;;;24.70;15.95;;;;;;;11.96;100.00;101182.25;6181859;23;20008;-81
2023/09/16 04:20:30;;;;;;;25.55;16.23;;;;;;;11.97;100.00;101173.19;6181942;23;20342;-81
2023/09/16 04:22:55;;;;;;;28.73;15.80;;;;;;;11.97;100.00;101175.88;6179750;23;20005;-82
2023/09/16 04:25:22;;;;;;;26.35;16.30;;;;;;;11.99;100.00;101170.38;6180284;23;20071;-81
2023/09/16 04:27:47;;;;;;;26.52;16.23;;;;;;;11.98;100.00;101185.69;6179591;23;20051;-82
2023/09/16 04:30:12;;;;;;;27.73;16.52;;;;;;;11.97;100.00;101178.56;6179413;23;20370;-81
2023/09/16 04:32:38;;;;;;;32.22;16.10;;;;;;;11.95;100.00;101179.66;6181752;23;20415;-81
2023/09/16 04:35:03;;;;;;;26.10;15.82;;;;;;;11.93;100.00;101169.00;6179952;23;20100;-82
2023/09/16 04:37:29;;;;;;;27.05;16.77;;;;;;;11.92;100.00;101177.16;6179742;23;20306;-82
2023/09/16 04:39:54;;;;;;;25.63;15.43;;;;;;;11.92;100.00;101174.44;6179088;23;20326;-81
2023/09/16 04:42:20;;;;;;;28.63;16.50;;;;;;;11.90;100.00;101174.56;6180562;23;20013;-81
2023/09/16 04:44:48;;;;;;;25.20;16.05;;;;;;;11.88;100.00;101163.91;6178945;23;20391;-81
2023/09/16 04:47:14;;;;;;;24.80;15.25;;;;;;;11.88;100.00;101172.00;6181096;23;20036;-81
2023/09/16 04:49:39;;;;;;;26.65;16.55;;;;;;;11.87;100.00;101175.69;6180353;23;20001;-81
2023/09/16 04:52:05;;;;;;;25.48;14.25;;;;;;;11.84;100.00;101173.19;6180791;23;20005;-81
2023/09/16 04:54:35;;;;;;;25.73;16.02;;;;;;;11.83;100.00;101170.59;6182007;23;20005;-80
2023/09/16 04:57:04;;;;;;;26.25;16.27;;;;;;;11.81;100.00;101176.09;6181325;23;20005;-79
2023/09/16 04:59:32;;;;;;;25.25;15.93;;;;;;;11.82;100.00;101169.75;6181387;23;20001;-78
2023/09/16 05:01:58;;;;;;;27.80;16.27;;;;;;;11.84;100.00;101173.19;6180463;23;20016;-78
2023/09/16 05:04:23;;;;;;;29.30;17.92;;;;;;;11.85;100.00;101174.06;6182684;23;20009;-79
2023/09/16 05:06:48;;;;;;;26.15;16.70;;;;;;;11.84;100.00;101175.03;6179928;23;20032;-79
2023/09/16 05:09:14;;;;;;;30.50;17.65;;;;;;;11.82;100.00;101175.16;6179186;23;20005;-79
2023/09/16 05:11:39;;;;;;;24.95;15.88;;;;;;;11.84;100.00;101175.88;6180192;23;20450;-79
2023/09/16 05:14:04;;;;;;;24.08;16.17;;;;;;;11.84;100.00;101173.19;6182212;23;20005;-78
2023/09/16 05:16:30;;;;;;;25.08;17.10;;;;;;;11.85;100.00;101176.75;6182087;23;20397;-79
2023/09/16 05:18:55;;;;;;;26.15;17.15;;;;;;;11.84;100.00;101177.72;6179734;23;20060;-79
2023/09/16 05:21:20;;;;;;;27.80;17.10;;;;;;;11.82;100.00;101174.28;6177863;23;20380;-79
2023/09/16 05:23:46;;;;;;;25.13;16.38;;;;;;;11.84;100.00;101178.56;6181325;23;20064;-79
2023/09/16 05:26:13;;;;;;;27.63;16.13;;;;;;;11.82;100.00;101180.53;6180072;23;20011;-79
2023/09/16 05:28:39;;;;;;;28.30;16.83;;;;;;;11.84;100.00;101175.88;6180940;23;20001;-79
2023/09/16 05:31:04;;;;;;;28.80;16.70;;;;;;;11.84;100.00;101170.50;6182124;23;20040;-79
2023/09/16 05:33:29;;;;;;;25.98;16.58;;;;;;;11.85;100.00;101174.91;6181654;23;20021;-79
2023/09/16 05:35:55;;;;;;;25.20;16.10;;;;;;;11.85;100.00;101174.91;6180092;23;20360;-79
2023/09/16 05:38:21;;;;;;;27.92;17.30;;;;;;;11.90;100.00;101174.56;6180863;23;20000;-79
2023/09/16 05:40:46;;;;;;;27.42;17.65;;;;;;;11.91;100.00;101178.16;6179172;23;20043;-79
2023/09/16 05:43:11;;;;;;;25.35;16.33;;;;;;;11.89;100.00;101171.03;6179378;23;20032;-78
2023/09/16 05:45:37;;;;;;;27.75;17.90;;;;;;;11.94;100.00;101167.16;6181388;23;20347;-79
2023/09/16 05:48:04;;;;;;;26.13;16.80;;;;;;;11.95;100.00;101168.88;6179844;23;20347;-79
2023/09/16 05:50:30;;;;;;;28.75;19.45;;;;;;;11.97;100.00;101169.63;6178763;23;20001;-79
2023/09/16 05:52:55;;;;;;;26.58;16.65;;;;;;;12.00;100.00;101172.09;6181470;23;20024;-78
2023/09/16 05:55:21;;;;;;;26.90;17.58;;;;;;;12.05;100.00;101175.31;6181857;23;20005;-79
2023/09/16 05:57:46;;;;;;;26.67;16.80;;;;;;;12.07;100.00;101176.06;6180079;23;20005;-80
2023/09/16 06:00:11;;;;;;;26.45;17.55;;;;;;;12.10;100.00;101178.53;6179387;23;20055;-78
2023/09/16 06:02:39;;;;;;;27.85;17.75;;;;;;;12.14;100.00;101177.31;6178481;23;20059;-81
2023/09/16 06:05:07;;;;;;;27.17;17.77;;;;;;;12.17;100.00;101173.53;6181407;23;20450;-78
2023/09/16 06:07:33;;;;;;;26.10;17.70;;;;;;;12.21;100.00;101175.91;6182089;23;20005;-79
2023/09/16 06:09:58;;;;;;;27.58;18.75;;;;;;;12.26;100.00;101182.78;6179602;23;20004;-80
2023/09/16 06:12:23;;;;;;;29.50;19.35;;;;;;;12.29;100.00;101169.06;6179985;23;20047;-79
2023/09/16 06:14:49;;;;;;;29.02;18.52;;;;;;;12.32;100.00;101179.63;6180117;23;20083;-79
2023/09/16 06:17:14;;;;;;;27.45;16.77;;;;;;;12.34;100.00;101178.53;6181695;23;20076;-81
2023/09/16 06:19:40;;;;;;;26.92;18.67;;;;;;;12.39;100.00;101181.72;6181033;23;20004;-73
2023/09/16 06:22:09;;;;;;;29.70;18.85;;;;;;;12.46;100.00;101192.03;6180263;23;20019;-74
2023/09/16 06:24:34;;;;;;;29.45;19.73;;;;;;;12.51;100.00;101188.00;6181504;23;20005;-73
2023/09/16 06:27:00;;;;;;;32.35;19.75;;;;;;;12.57;100.00;101187.53;6180645;23;20072;-73
2023/09/16 06:29:25;;;;;;;35.50;19.77;;;;;;;12.65;100.00;101188.78;6181871;23;20004;-73
2023/09/16 06:31:50;;;;;;;29.08;18.58;;;;;;;12.71;100.00;101185.66;6179348;23;20005;-72
2023/09/16 06:34:16;;;;;;;29.50;20.48;;;;;;;12.77;100.00;101183.31;6180550;23;20024;-73
2023/09/16 06:36:44;;;;;;;29.77;20.65;;;;;;;12.83;100.00;101187.38;6182554;23;20080;-74
2023/09/16 06:39:11;;;;;;;28.25;20.73;;;;;;;12.90;100.00;101188.63;6181751;23;20064;-73
2023/09/16 06:41:36;;;;;;;28.83;21.15;;;;;;;12.97;100.00;101186.28;6180410;23;20363;-74
2023/09/16 06:44:02;;;;;;;33.65;20.83;;;;;;;13.05;100.00;101191.13;6181648;23;20005;-73
2023/09/16 06:46:27;;;;;;;30.42;23.27;;;;;;;13.11;100.00;101196.03;6180076;23;19997;-73
2023/09/16 06:48:52;;;;;;;31.90;21.95;;;;;;;13.19;100.00;101192.72;6180066;23;20317;-73
2023/09/16 06:51:18;;;;;;;31.08;22.15;;;;;;;13.25;100.00;101198.50;6179293;23;20040;-74
2023/09/16 06:53:43;;;;;;;28.10;17.30;;;;;;;13.32;100.00;101198.84;6181690;23;20342;-70
2023/09/16 06:56:09;;;;;;;31.27;22.67;;;;;;;13.40;100.00;101192.91;6180797;23;20005;-77
2023/09/16 06:58:34;;;;;;;32.30;22.75;;;;;;;13.47;100.00;101194.13;6181067;23;20005;-77
2023/09/16 07:01:08;;;;;;;31.50;23.40;;;;;;;13.55;100.00;101188.94;6178599;23;19997;-78
2023/09/16 07:03:33;;;;;;;32.03;25.30;;;;;;;13.64;100.00;101187.34;6180267;23;20093;-77
2023/09/16 07:05:59;;;;;;;33.15;26.60;;;;;;;13.71;100.00;101176.91;6181808;23;20028;-78
2023/09/16 07:08:24;;;;;;;31.08;25.42;;;;;;;13.79;100.00;101179.81;6179150;23;20005;-77
2023/09/16 07:10:49;;;;;;;34.53;25.33;;;;;;;13.85;100.00;101183.88;6179945;23;20033;-78
2023/09/16 07:13:15;;;;;;;32.05;21.92;;;;;;;13.91;100.00;101186.06;6180135;23;20489;-77
2023/09/16 07:15:40;;;;;;;37.70;25.13;;;;;;;13.96;100.00;101192.81;6179226;23;20075;-77
2023/09/16 07:18:06;;;;;;;28.38;19.55;;;;;;;13.99;100.00;101189.84;6180662;23;20008;-78
2023/09/16 07:20:31;;;;;;;32.25;24.23;;;;;;;14.07;100.00;101180.25;6179594;23;20065;-77
2023/09/16 07:22:57;;;;;;;31.05;23.20;;;;;;;14.12;100.00;101178.06;6178402;23;20005;-77
2023/09/16 07:25:22;;;;;;;28.85;21.38;;;;;;;14.18;100.00;101180.22;6182400;23;20159;-78
2023/09/16 07:27:48;;;;;;;34.25;20.88;;;;;;;14.22;100.00;101178.16;6178306;23;20005;-78
2023/09/16 07:30:14;;;;;;;28.88;19.88;;;;;;;14.23;100.00;101182.56;6179516;23;20001;-78
2023/09/16 07:32:41;;;;;;;28.75;20.00;;;;;;;14.28;100.00;101181.19;6178868;23;20452;-78
2023/09/16 07:35:07;;;;;;;33.40;24.67;;;;;;;14.34;100.00;101180.66;6178129;23;20024;-76
2023/09/16 07:37:32;;;;;;;27.17;18.55;;;;;;;14.33;100.00;101187.06;6180015;23;20000;-75
2023/09/16 07:39:57;;;;;;;29.27;19.73;;;;;;;14.41;100.00;101182.88;6180426;23;20005;-76
2023/09/16 07:42:23;;;;;;;25.95;16.13;;;;;;;14.41;100.00;101185.56;6178006;23;20087;-75
2023/09/16 07:44:48;;;;;;;24.83;15.55;;;;;;;14.46;100.00;101194.13;6180137;23;20434;-75
2023/09/16 07:47:13;;;;;;;24.90;12.43;;;;;;;14.44;100.00;101196.97;6179629;23;20016;-77
2023/09/16 07:49:39;;;;;;;21.95;11.45;;;;;;;14.43;100.00;101194.41;6180044;23;20009;-78
2023/09/16 07:52:04;;;;;;;20.48;8.93;;;;;;;14.44;100.00;101188.88;6179234;23;20012;-77
2023/09/16 07:54:29;;;;;;;21.73;9.20;;;;;;;14.50;100.00;101195.59;6180689;23;20004;-79
2023/09/16 07:56:55;;;;;;;24.60;13.40;;;;;;;14.60;100.00;101198.41;6180480;23;20005;-78
2023/09/16 07:59:21;;;;;;;20.45;9.55;;;;;;;14.61;100.00;101200.09;6181952;23;19997;-77
2023/09/16 08:01:46;;;;;;;27.33;16.77;;;;;;;14.73;100.00;101200.94;6180765;23;20013;-77
2023/09/16 08:04:12;;;;;;;20.50;9.25;;;;;;;14.75;100.00;101204.38;6180487;23;20012;-78
2023/09/16 08:06:37;;;;;;;20.70;9.55;;;;;;;14.81;100.00;101204.69;6181688;23;20108;-77
2023/09/16 08:09:03;;;;;;;24.50;12.52;;;;;;;14.92;100.00;101202.91;6179996;23;20009;-78
2023/09/16 08:11:28;;;;;;;24.65;14.88;;;;;;;15.00;100.00;101201.25;6182008;23;20055;-77
2023/09/16 08:13:54;;;;;;;21.88;11.68;;;;;;;15.04;100.00;101199.16;6179926;23;20005;-78
2023/09/16 08:16:19;;;;;;;23.17;10.70;;;;;;;15.09;100.00;101207.72;6181100;23;20008;-77
2023/09/16 08:18:44;;;;;;;23.38;12.63;;;;;;;15.23;100.00;101205.66;6184136;23;20008;-77
2023/09/16 08:21:10;;;;;;;24.58;16.00;;;;;;;15.34;100.00;101203.75;6181849;23;20331;-78
2023/09/16 08:23:35;;;;;;;22.00;11.13;;;;;;;15.30;100.00;101204.13;6183920;23;20036;-78
2023/09/16 08:26:01;;;;;;;22.88;12.90;;;;;;;15.41;100.00;101211.34;6183718;23;20108;-78
2023/09/16 08:28:26;;;;;;;22.67;11.35;;;;;;;15.43;100.00;101214.75;6184163;23;20028;-78
2023/09/16 08:30:52;;;;;;;22.20;11.43;;;;;;;15.46;100.00;101218.06;6183649;23;20005;-78
2023/09/16 08:33:17;;;;;;;22.05;10.35;;;;;;;15.52;100.00;101222.94;6183959;23;20001;-78
2023/09/16 08:35:43;;;;;;;25.25;14.68;;;;;;;15.67;100.00;101220.69;6182244;23;20343;-78
2023/09/16 08:38:08;;;;;;;22.10;10.07;;;;;;;15.71;100.00;101223.97;6181700;23;20056;-78
2023/09/16 08:40:34;;;;;;;22.98;11.38;;;;;;;15.73;100.00;101231.00;6181673;23;19997;-77
2023/09/16 08:43:25;;;;;;;25.75;15.27;;;;;;;15.89;100.00;101232.38;6179882;23;20005;-77
2023/09/16 08:45:59;;;;;;;27.48;18.77;;;;;;;16.02;100.00;101232.97;6174374;23;20013;-78
2023/09/16 08:48:26;;;;;;;21.80;11.02;;;;;;;16.06;100.00;101245.25;6183810;23;20031;-71
2023/09/16 08:50:53;;;;;;;20.35;8.60;;;;;;;16.06;100.00;101238.97;6182445;23;20035;-75
2023/09/16 08:53:19;;;;;;;18.75;6.80;;;;;;;16.07;100.00;101236.13;6180749;23;20144;-76
2023/09/16 08:55:44;;;;;;;18.90;7.68;;;;;;;16.09;100.00;101238.69;6181781;23;20522;-77
2023/09/16 08:58:10;;;;;;;19.20;8.10;;;;;;;16.10;100.00;101237.69;6183041;23;20040;-76
2023/09/16 09:00:37;;;;;;;19.73;8.02;;;;;;;16.17;100.00;101241.56;6182611;23;20012;-76
2023/09/16 09:03:02;;;;;;;21.77;9.25;;;;;;;16.23;100.00;101240.16;6181105;23;20020;-75
2023/09/16 09:05:29;;;;;;;17.52;7.07;;;;;;;16.26;100.00;101242.59;6180556;23;20005;-76
2023/09/16 09:07:54;;;;;;;21.33;9.63;;;;;;;16.38;100.00;101236.06;6180430;23;20009;-76
2023/09/16 09:10:21;;;;;;;19.77;7.93;;;;;;;16.44;100.00;101226.47;6180439;23;20320;-76
2023/09/16 09:12:46;;;;;;;20.80;9.50;;;;;;;16.50;100.00;101230.47;6182357;23;20012;-75
2023/09/16 09:15:13;;;;;;;19.88;8.45;;;;;;;16.57;100.00;101237.03;6181399;23;20431;-76
2023/09/16 09:17:59;;;;;;;20.45;8.52;;;;;;;16.64;100.00;101240.91;6180538;23;20119;-76
2023/09/16 09:20:27;;;;;;;17.90;7.60;;;;;;;16.69;100.00;101246.78;6180543;23;20001;-76
2023/09/16 09:22:53;;;;;;;18.05;6.50;;;;;;;16.73;100.00;101253.59;6180346;23;20001;-76
2023/09/16 09:25:23;;;;;;;20.70;9.63;;;;;;;16.78;100.00;101243.19;6182735;23;20005;-76
2023/09/16 09:27:49;;;;;;;27.85;15.60;;;;;;;16.95;100.00;101248.91;6179971;23;20015;-76
2023/09/16 09:30:15;;;;;;;19.60;8.27;;;;;;;16.98;100.00;101248.63;6182773;23;20011;-76
2023/09/16 09:32:45;;;;;;;18.45;7.32;;;;;;;17.04;100.00;101253.50;6180766;23;20021;-76
2023/09/16 09:35:11;;;;;;;23.40;11.52;;;;;;;17.14;100.00;101249.91;6180965;23;20017;-76
2023/09/16 09:37:37;;;;;;;20.50;8.95;;;;;;;17.17;100.00;101249.63;6180566;23;20451;-76
2023/09/16 09:40:12;;;;;;;21.95;10.77;;;;;;;17.25;100.00;101244.31;6180353;23;20430;-75
2023/09/16 09:42:42;;;;;;;22.50;11.25;;;;;;;17.35;100.00;101253.28;6182190;23;20063;-76
2023/09/16 09:45:09;;;;;;;20.60;6.72;;;;;;;17.30;100.00;101247.44;6182188;23;20013;-76
2023/09/16 09:47:35;;;;;;;18.67;6.90;;;;;;;17.32;100.00;101259.03;6182369;23;20318;-76
2023/09/16 09:50:02;;;;;;;17.23;6.85;;;;;;;17.34;100.00;101256.16;6179875;23;20355;-77
2023/09/16 09:52:28;;;;;;;19.40;9.07;;;;;;;17.45;100.00;101255.97;6181653;23;20055;-76
2023/09/16 09:54:55;;;;;;;17.63;6.72;;;;;;;17.51;100.00;101259.97;6179854;23;20037;-79
2023/09/16 09:57:22;;;;;;;16.08;6.03;;;;;;;17.57;100.00;101256.63;6182326;23;20013;-78
2023/09/16 09:59:47;;;;;;;20.73;9.98;;;;;;;17.68;100.00;101259.19;6180920;23;20197;-78
2023/09/16 10:02:14;;;;;;;17.67;7.53;;;;;;;17.68;100.00;101253.75;6179848;23;20096;-78
2023/09/16 10:04:39;;;;;;;19.08;6.90;;;;;;;17.71;100.00;101253.44;6180422;23;20005;-77
2023/09/16 10:07:05;;;;;;;20.85;8.75;;;;;;;17.80;100.00;101244.41;6178918;23;20009;-77
2023/09/16 10:09:30;;;;;;;18.27;6.80;;;;;;;17.85;100.00;101249.38;6178463;23;20013;-77
2023/09/16 10:12:00;;;;;;;16.95;7.80;;;;;;;17.98;100.00;101251.81;6179752;23;20004;-83
2023/09/16 10:14:25;;;;;;;21.80;11.05;;;;;;;18.03;100.00;101244.03;6182794;23;20288;-84
2023/09/16 10:16:52;;;;;;;18.50;8.73;;;;;;;18.07;100.00;101242.72;6180985;23;20037;-82
2023/09/16 10:19:20;;;;;;;18.00;6.35;;;;;;;18.07;100.00;101245.44;6180635;23;20047;-83
2023/09/16 10:21:46;;;;;;;20.92;9.55;;;;;;;18.19;100.00;101246.09;6182296;23;20131;-83
2023/09/16 10:24:12;;;;;;;19.13;7.35;;;;;;;18.20;100.00;101236.03;6180297;23;20387;-84
2023/09/16 10:26:38;;;;;;;20.00;8.20;;;;;;;18.29;100.00;101246.88;6183163;23;20427;-83
2023/09/16 10:29:04;;;;;;;20.73;8.35;;;;;;;18.35;100.00;101245.41;6182601;23;20312;-83
2023/09/16 10:31:30;;;;;;;16.63;6.53;;;;;;;18.39;100.00;101241.38;6182835;23;20084;-83
2023/09/16 10:33:57;;;;;;;15.93;5.80;;;;;;;18.42;98.67;101240.19;6182702;23;20017;-83
2023/09/16 10:36:24;;;;;;;21.27;8.55;;;;;;;18.52;100.00;101235.53;6182937;23;20096;-82
2023/09/16 10:38:50;;;;;;;17.48;6.20;;;;;;;18.49;99.92;101233.13;6182724;23;20088;-83
2023/09/16 10:41:16;;;;;;;22.85;11.82;;;;;;;18.60;100.00;101234.78;6182593;23;20075;-83
2023/09/16 10:43:46;;;;;;;19.73;8.90;;;;;;;18.62;100.00;101230.00;6181001;23;20203;-83
2023/09/16 10:46:13;;;;;;;19.55;8.35;;;;;;;18.66;100.00;101226.81;6180925;23;20005;-83
2023/09/16 10:48:38;;;;;;;19.38;8.00;;;;;;;18.68;100.00;101226.66;6180343;23;20001;-83
2023/09/16 10:51:08;;;;;;;18.80;7.00;;;;;;;18.69;99.72;101222.94;6180625;23;20032;-84
2023/09/16 10:53:36;;;;;;;24.52;12.85;;;;;;;18.81;100.00;101215.38;6180784;23;20016;-82
2023/09/16 10:56:13;;;;;;;20.73;9.15;;;;;;;18.83;100.00;101216.94;6182551;23;20001;-82
2023/09/16 10:58:47;;;;;;;19.42;8.48;;;;;;;18.88;100.00;101219.22;6181762;23;20079;-82